createdAt,value
2019-03-25T00:24:38.610Z,47.87
2019-03-25T00:29:28.879Z,43.63
2019-03-25T04:14:47.722Z,18.23
2019-03-25T04:19:43.500Z,22.33
2019-03-25T05:21:19.889Z,12.77
2019-03-25T05:26:15.569Z,12.87
2019-03-25T06:26:57.907Z,11.13
2019-03-25T06:31:53.582Z,15.23
2019-03-25T06:52:15.710Z,15.63
2019-03-25T06:57:11.400Z,11.97
2019-03-25T07:17:42.098Z,12.43
2019-03-25T07:22:37.763Z,10.77
2019-03-25T07:32:55.457Z,8.00
2019-03-25T07:37:51.135Z,11.27
2019-03-25T08:14:13.871Z,14.43
2019-03-25T08:19:09.636Z,10.50
2019-03-25T10:11:13.208Z,14.03
2019-03-25T10:47:04.233Z,12.93
2019-03-25T10:52:00.749Z,13.20
2019-03-25T10:56:57.091Z,13.00
2019-03-25T11:01:53.183Z,11.43
2019-03-25T11:06:49.311Z,14.70
2019-03-25T11:11:45.739Z,12.67
2019-03-25T11:16:42.544Z,17.10
2019-03-25T11:21:38.326Z,14.77
2019-03-25T11:26:34.131Z,7.13
2019-03-25T11:31:30.729Z,6.80
2019-03-25T11:36:27.046Z,8.33
2019-03-25T11:41:23.548Z,8.53
2019-03-25T11:46:19.486Z,9.80
2019-03-25T11:51:15.869Z,8.07
2019-03-25T11:56:11.983Z,9.30
2019-03-25T12:01:09.979Z,10.23
2019-03-25T12:06:06.638Z,10.20
2019-03-25T12:11:02.330Z,5.93
2019-03-25T12:15:59.240Z,9.77
2019-03-25T12:20:55.116Z,7.83
2019-03-25T12:25:51.624Z,10.43
2019-03-25T12:30:48.797Z,10.27
2019-03-25T12:35:44.763Z,3.70
2019-03-25T12:40:40.573Z,2.60
2019-03-25T12:45:36.512Z,5.00
2019-03-25T12:50:34.961Z,4.73
2019-03-25T12:55:30.817Z,2.57
2019-03-25T13:00:54.796Z,1.97
2019-03-25T13:05:51.483Z,2.77
2019-03-25T13:10:47.440Z,3.23
2019-03-25T13:15:49.725Z,3.57
2019-03-25T13:20:45.654Z,4.23
2019-03-25T13:25:41.816Z,2.70
2019-03-25T13:30:37.709Z,3.90
2019-03-25T13:35:33.816Z,3.50
2019-03-25T13:40:30.571Z,4.30
2019-03-25T13:45:26.659Z,4.00
2019-03-25T13:50:22.329Z,3.47
2019-03-25T13:55:18.509Z,5.23
2019-03-25T14:00:15.430Z,5.53
2019-03-25T14:05:11.589Z,2.70
2019-03-25T14:10:08.104Z,4.20
2019-03-25T14:15:06.172Z,3.47
2019-03-25T14:20:03.358Z,4.47
2019-03-25T14:24:59.373Z,3.20
2019-03-25T14:29:56.129Z,4.53
2019-03-25T14:34:51.899Z,3.67
2019-03-25T14:39:47.994Z,2.10
2019-03-25T14:44:43.788Z,4.07
2019-03-25T14:49:39.698Z,3.27
2019-03-25T14:54:35.386Z,4.33
2019-03-25T14:59:31.713Z,6.57
2019-03-25T15:04:27.403Z,2.57
2019-03-25T15:09:24.151Z,4.73
2019-03-25T15:14:20.170Z,4.60
2019-03-25T15:19:15.949Z,1.70
2019-03-25T15:24:11.631Z,2.53
2019-03-25T15:29:08.206Z,2.67
2019-03-25T15:34:04.978Z,6.23
2019-03-25T15:39:01.946Z,8.80
2019-03-25T15:43:57.638Z,1.87
2019-03-25T15:48:53.422Z,4.80
2019-03-25T15:53:49.100Z,3.47
2019-03-25T15:58:45.344Z,2.67
2019-03-25T16:03:41.917Z,2.57
2019-03-25T16:08:37.917Z,3.27
2019-03-25T16:13:33.720Z,4.50
2019-03-25T16:18:31.347Z,2.30
2019-03-25T16:23:27.055Z,1.47
2019-03-25T16:28:24.056Z,3.00
2019-03-25T16:33:21.145Z,1.87
2019-03-25T16:43:22.056Z,2.40
2019-03-25T16:48:31.961Z,1.93
2019-03-25T16:53:28.865Z,3.00
2019-03-25T16:58:25.459Z,1.43
2019-03-25T17:03:21.582Z,1.30
2019-03-25T17:08:17.418Z,2.20
2019-03-25T17:13:13.814Z,2.03
2019-03-25T17:18:10.312Z,2.90
2019-03-25T17:23:06.403Z,3.63
2019-03-25T17:28:02.183Z,3.00
2019-03-25T17:32:58.981Z,4.10
2019-03-25T17:37:55.698Z,3.17
2019-03-25T17:42:53.533Z,4.57
2019-03-25T17:47:50.127Z,6.07
2019-03-25T17:52:47.399Z,5.93
2019-03-25T17:57:43.550Z,10.10
2019-03-25T18:02:39.435Z,9.93
2019-03-25T18:07:35.143Z,18.20
2019-03-25T18:12:38.766Z,9.47
2019-03-25T18:17:29.373Z,10.80
2019-03-25T18:22:26.592Z,4.67
2019-03-25T18:27:22.296Z,5.80
2019-03-25T18:32:19.164Z,5.37
2019-03-25T18:37:14.849Z,4.20
2019-03-25T18:42:12.831Z,6.93
2019-03-25T18:47:08.765Z,6.40
2019-03-25T18:52:04.864Z,9.33
2019-03-25T18:57:01.589Z,8.13
2019-03-25T19:01:59.790Z,5.00
2019-03-25T19:07:01.860Z,6.10
2019-03-25T19:12:02.480Z,6.00
2019-03-25T19:16:58.474Z,6.53
2019-03-25T19:21:54.262Z,7.60
2019-03-25T19:26:50.545Z,6.63
2019-03-25T19:31:52.015Z,10.40
2019-03-25T19:36:47.928Z,9.47
2019-03-25T19:41:46.604Z,5.97
2019-03-25T19:46:42.546Z,6.07
2019-03-25T19:51:39.220Z,7.03
2019-03-25T19:56:35.957Z,6.10
2019-03-25T20:01:31.876Z,5.80
2019-03-25T20:06:29.057Z,5.83
2019-03-25T20:11:24.932Z,4.13
2019-03-25T20:16:21.849Z,5.97
2019-03-25T20:21:32.055Z,5.80
2019-03-25T20:26:27.819Z,7.30
2019-03-25T20:31:26.004Z,11.93
2019-03-25T20:36:22.344Z,14.27
2019-03-25T20:41:20.078Z,10.97
2019-03-25T20:46:16.611Z,7.47
2019-03-25T20:51:12.690Z,8.03
2019-03-25T20:56:08.576Z,9.33
2019-03-25T21:01:05.969Z,6.93
2019-03-25T21:06:05.216Z,7.37
2019-03-25T21:11:02.067Z,9.73
2019-03-25T21:15:58.809Z,5.80
2019-03-25T21:20:54.617Z,5.67
2019-03-25T21:26:07.457Z,6.57
2019-03-25T21:31:03.414Z,5.53
2019-03-25T21:36:00.170Z,3.87
2019-03-25T21:40:55.846Z,6.47
2019-03-25T21:45:53.897Z,3.00
2019-03-25T21:50:49.962Z,3.03
2019-03-25T21:55:49.076Z,3.83
2019-03-25T22:00:46.013Z,4.73
2019-03-25T22:05:46.865Z,3.10
2019-03-25T22:10:43.387Z,11.43
2019-03-25T22:15:39.970Z,6.60
2019-03-25T22:20:36.639Z,3.50
2019-03-25T22:25:34.916Z,5.73
2019-03-25T22:30:31.375Z,2.43
2019-03-25T22:35:27.558Z,2.77
2019-03-25T22:40:24.053Z,5.67
2019-03-25T22:45:27.775Z,5.73
2019-03-25T22:50:24.486Z,2.87
2019-03-25T22:55:23.417Z,3.07
2019-03-25T23:00:23.220Z,3.97
2019-03-25T23:05:19.117Z,4.27
2019-03-25T23:10:15.838Z,2.67
2019-03-25T23:15:13.766Z,3.20
2019-03-25T23:20:11.218Z,4.33
2019-03-25T23:25:07.559Z,2.43
2019-03-25T23:30:04.593Z,4.10
2019-03-25T23:35:01.906Z,4.60
2019-03-25T23:39:58.035Z,3.93
2019-03-25T23:44:54.633Z,4.60
2019-03-25T23:49:51.022Z,2.53
2019-03-25T23:54:47.699Z,5.57
2019-03-25T23:59:44.628Z,2.63
